Time;durP1;ratioP1;P1;durP2;ratioP2;P2;SDS_P1;SDS_P2;PMS_P1;PMS_P2;Temp;Humidity;BMP_temperature;BMP_pressure;BME280_temperature;BME280_humidity;BME280_pressure;Samples;Min_cycle;Max_cycle;Signal;HPM_P1;HPM_P2
2023/09/07 00:01:14;;;;;;;23.90;21.20;;;;;;;13.27;100.00;99778.89;109573;1251;60116;-72
2023/09/07 00:03:41;;;;;;;23.80;21.00;;;;;;;13.23;100.00;99776.80;109580;1252;64153;-72
2023/09/07 00:06:08;;;;;;;23.40;20.90;;;;;;;13.21;100.00;99782.11;109615;1252;58956;-72
2023/09/07 00:08:34;;;;;;;23.80;20.20;;;;;;;13.19;100.00;99782.05;109592;1252;59055;-72
2023/09/07 00:11:05;;;;;;;23.20;20.50;;;;;;;13.17;100.00;99778.42;109578;1252;65754;-72
2023/09/07 00:13:33;;;;;;;24.20;20.50;;;;;;;13.15;100.00;99779.66;109601;1251;61077;-72
2023/09/07 00:16:00;;;;;;;23.70;21.30;;;;;;;13.14;100.00;99781.15;109287;1252;62772;-72
2023/09/07 00:18:27;;;;;;;23.90;20.20;;;;;;;13.13;100.00;99782.65;109561;1252;58963;-72
2023/09/07 00:20:53;;;;;;;24.50;21.90;;;;;;;13.10;100.00;99783.34;109585;1252;59080;-72
2023/09/07 00:23:20;;;;;;;24.00;21.40;;;;;;;13.08;100.00;99782.58;109583;1253;59631;-72
2023/09/07 00:25:47;;;;;;;23.70;21.30;;;;;;;13.06;100.00;99782.04;109297;1251;59427;-72
2023/09/07 00:28:14;;;;;;;24.90;22.40;;;;;;;13.06;100.00;99780.79;109580;1251;62819;-72
2023/09/07 00:30:41;;;;;;;24.60;21.60;;;;;;;13.06;100.00;99778.63;109576;1253;59048;-72
2023/09/07 00:33:08;;;;;;;26.70;23.70;;;;;;;13.06;100.00;99778.64;109650;1252;58994;-73
2023/09/07 00:35:35;;;;;;;27.90;23.60;;;;;;;13.07;100.00;99780.55;109611;1252;65350;-72
2023/09/07 00:38:02;;;;;;;27.20;24.40;;;;;;;13.08;100.00;99780.64;109391;1251;60080;-72
2023/09/07 00:40:30;;;;;;;26.70;23.80;;;;;;;13.10;100.00;99782.08;109569;1252;62881;-72
2023/09/07 00:42:56;;;;;;;32.10;24.60;;;;;;;13.13;100.00;99781.36;109527;1252;58925;-72
2023/09/07 00:45:23;;;;;;;30.90;24.80;;;;;;;13.15;100.00;99779.61;109539;1252;59040;-72
2023/09/07 00:47:50;;;;;;;26.00;23.40;;;;;;;13.17;100.00;99781.14;109560;1252;66052;-72
2023/09/07 00:50:16;;;;;;;27.80;24.80;;;;;;;13.19;100.00;99786.70;109572;1251;60187;-72
2023/09/07 00:52:44;;;;;;;26.20;23.50;;;;;;;13.22;100.00;99783.84;109530;1252;64092;-72
2023/09/07 00:55:12;;;;;;;27.00;24.20;;;;;;;13.20;100.00;99782.34;109520;1252;58958;-72
2023/09/07 00:57:42;;;;;;;26.40;23.60;;;;;;;13.17;100.00;99785.06;109618;1251;59060;-72
2023/09/07 01:00:09;;;;;;;26.50;21.80;;;;;;;13.14;100.00;99784.52;109569;1251;65861;-72
2023/09/07 01:02:36;;;;;;;25.60;22.70;;;;;;;13.10;100.00;99782.63;109593;1252;59007;-72
2023/09/07 01:05:06;;;;;;;27.50;23.00;;;;;;;13.10;100.00;99782.99;109632;1253;63748;-72
2023/09/07 01:07:47;;;;;;;28.60;24.00;;;;;;;13.11;100.00;99780.81;109560;1251;59464;-71
2023/09/07 01:10:14;;;;;;;26.30;23.50;;;;;;;13.10;100.00;99779.23;109615;1253;58837;-72
2023/09/07 01:12:40;;;;;;;26.80;23.20;;;;;;;13.09;100.00;99778.39;109598;1252;66057;-72
2023/09/07 01:15:08;;;;;;;26.10;23.30;;;;;;;13.08;100.00;99777.95;109545;1253;60974;-72
2023/09/07 01:17:35;;;;;;;25.90;23.20;;;;;;;13.06;100.00;99773.61;109052;1253;62869;-72
2023/09/07 01:20:11;;;;;;;25.10;22.40;;;;;;;13.03;100.00;99772.01;109593;1252;59013;-72
2023/09/07 01:22:38;;;;;;;26.50;23.60;;;;;;;13.01;100.00;99774.34;109618;1252;58847;-72
2023/09/07 01:25:06;;;;;;;25.40;22.70;;;;;;;12.97;100.00;99771.55;109558;1252;66042;-71
2023/09/07 01:27:33;;;;;;;26.30;23.70;;;;;;;12.93;100.00;99776.27;109538;1252;60193;-72
2023/09/07 01:30:03;;;;;;;27.00;24.00;;;;;;;12.91;100.00;99779.77;109587;1252;62823;-72
2023/09/07 01:32:30;;;;;;;;;;;;;;;12.89;100.00;99780.39;109571;1252;59004;-72
2023/09/07 01:34:58;;;;;;;25.90;22.60;;;;;;;12.85;100.00;99780.68;109417;1252;59096;-73
2023/09/07 01:37:24;;;;;;;27.80;24.10;;;;;;;12.82;100.00;99780.36;109577;1253;66158;-73
2023/09/07 01:39:51;;;;;;;26.40;23.70;;;;;;;12.79;100.00;99782.86;109299;1252;59869;-72
2023/09/07 01:42:17;;;;;;;26.60;21.90;;;;;;;12.76;100.00;99779.64;109619;1253;59065;-72
2023/09/07 01:44:45;;;;;;;26.20;23.40;;;;;;;12.74;100.00;99781.70;109508;1254;58990;-72
2023/09/07 01:47:11;;;;;;;25.20;22.40;;;;;;;12.71;100.00;99783.85;109559;1253;59044;-72
2023/09/07 01:49:38;;;;;;;25.90;22.70;;;;;;;12.69;100.00;99783.30;109577;1251;59749;-72
2023/09/07 01:52:04;;;;;;;22.30;20.00;;;;;;;12.67;100.00;99782.32;109572;1252;59005;-72
2023/09/07 01:54:31;;;;;;;24.20;21.80;;;;;;;12.65;100.00;99780.72;109297;1253;64135;-73
2023/09/07 01:56:58;;;;;;;26.10;23.30;;;;;;;12.62;100.00;99778.97;109583;1252;59038;-72
2023/09/07 01:59:25;;;;;;;26.10;23.40;;;;;;;12.59;100.00;99775.56;109628;1252;58976;-73
2023/09/07 02:01:51;;;;;;;28.20;25.40;;;;;;;12.56;100.00;99775.21;109604;1251;67198;-72
2023/09/07 02:04:18;;;;;;;26.90;24.10;;;;;;;12.54;100.00;99774.64;109594;1254;59044;-72
2023/09/07 02:06:44;;;;;;;29.00;26.10;;;;;;;12.53;100.00;99777.52;109612;1253;59051;-72
2023/09/07 02:09:11;;;;;;;26.60;23.90;;;;;;;12.51;100.00;99773.35;109541;1254;58951;-72
2023/09/07 02:11:37;;;;;;;28.40;25.20;;;;;;;12.53;100.00;99772.91;109584;1254;58988;-72
2023/09/07 02:14:04;;;;;;;28.00;24.90;;;;;;;12.56;100.00;99772.73;109591;1252;65708;-72
2023/09/07 02:16:30;;;;;;;26.90;24.30;;;;;;;12.58;100.00;99772.23;109637;1251;60070;-72
2023/09/07 02:19:04;;;;;;;27.60;24.60;;;;;;;12.61;100.00;99769.56;109520;1254;62863;-72
2023/09/07 02:21:31;;;;;;;29.00;26.00;;;;;;;12.64;100.00;99768.85;109540;1253;58954;-71
2023/09/07 02:23:57;;;;;;;27.50;24.40;;;;;;;12.66;100.00;99768.66;109595;1252;59052;-73
2023/09/07 02:26:24;;;;;;;27.20;24.30;;;;;;;12.67;100.00;99765.56;109562;1253;64527;-72
2023/09/07 02:28:51;;;;;;;26.10;23.30;;;;;;;12.69;100.00;99759.60;109308;1253;59862;-72
2023/09/07 02:31:17;;;;;;;26.10;23.50;;;;;;;12.70;100.00;99758.61;109557;1251;59819;-73
2023/09/07 02:33:44;;;;;;;26.70;24.00;;;;;;;12.70;100.00;99759.55;109221;1252;59082;-72
2023/09/07 02:36:10;;;;;;;26.80;24.00;;;;;;;12.69;100.00;99763.50;109553;1253;58984;-73
2023/09/07 02:38:37;;;;;;;26.30;23.70;;;;;;;12.69;100.00;99765.11;109505;1251;73170;-72
2023/09/07 02:41:04;;;;;;;27.20;24.50;;;;;;;12.69;100.00;99761.37;109591;1253;59010;-72
2023/09/07 02:43:30;;;;;;;26.80;23.70;;;;;;;12.69;100.00;99759.20;109569;1254;64107;-72
2023/09/07 02:45:57;;;;;;;27.30;23.40;;;;;;;12.69;100.00;99756.89;109532;1253;58956;-72
2023/09/07 02:48:24;;;;;;;24.40;21.80;;;;;;;12.68;100.00;99755.68;109615;1253;59029;-73
2023/09/07 02:50:50;;;;;;;24.00;21.50;;;;;;;12.68;100.00;99759.48;109583;1251;66177;-72
2023/09/07 02:53:17;;;;;;;27.00;23.30;;;;;;;12.69;100.00;99757.29;109615;1254;59214;-72
2023/09/07 02:55:43;;;;;;;23.80;21.20;;;;;;;12.69;100.00;99752.96;109583;1252;63994;-72
2023/09/07 02:58:10;;;;;;;25.00;22.10;;;;;;;12.70;100.00;99755.06;109534;1252;58994;-73
2023/09/07 03:00:44;;;;;;;24.90;22.40;;;;;;;12.71;100.00;99760.37;109615;1251;59443;-72
2023/09/07 03:03:14;;;;;;;24.60;22.10;;;;;;;12.72;100.00;99762.27;109639;1251;66064;-72
2023/09/07 03:05:42;;;;;;;24.80;22.20;;;;;;;12.71;100.00;99763.92;109339;1256;69732;-72
2023/09/07 03:08:09;;;;;;;24.40;22.10;;;;;;;12.70;100.00;99761.46;109573;1251;64049;-72
2023/09/07 03:10:37;;;;;;;25.40;22.60;;;;;;;12.68;100.00;99757.52;109626;1251;58981;-72
2023/09/07 03:13:05;;;;;;;24.60;22.20;;;;;;;12.64;100.00;99760.61;109429;1250;58997;-72
2023/09/07 03:15:32;;;;;;;25.60;22.90;;;;;;;12.62;100.00;99763.59;109608;1251;66023;-72
2023/09/07 03:17:58;;;;;;;25.70;22.90;;;;;;;12.61;100.00;99766.30;109659;1250;60176;-73
2023/09/07 03:20:25;;;;;;;25.70;22.90;;;;;;;12.60;100.00;99767.45;109305;1251;62865;-73
2023/09/07 03:22:52;;;;;;;28.10;25.20;;;;;;;12.58;100.00;99765.96;109299;1251;59006;-73
2023/09/07 03:25:18;;;;;;;29.50;26.50;;;;;;;12.56;100.00;99766.10;109649;1251;58904;-73
2023/09/07 03:27:45;;;;;;;29.30;26.30;;;;;;;12.56;100.00;99764.17;109604;1251;66025;-73
2023/09/07 03:30:11;;;;;;;30.00;26.90;;;;;;;12.54;100.00;99763.89;109636;1250;59155;-72
2023/09/07 03:32:38;;;;;;;30.40;27.40;;;;;;;12.53;100.00;99765.42;109422;1251;64255;-73
2023/09/07 03:35:09;;;;;;;31.70;28.30;;;;;;;12.51;100.00;99764.30;109614;1251;58941;-73
2023/09/07 03:37:37;;;;;;;31.20;28.00;;;;;;;12.50;100.00;99759.70;109578;1254;59134;-73
2023/09/07 03:40:05;;;;;;;30.80;27.50;;;;;;;12.50;100.00;99757.75;109319;1250;66073;-72
2023/09/07 03:42:31;;;;;;;32.50;28.30;;;;;;;12.48;100.00;99757.87;109331;1250;60278;-73
2023/09/07 03:44:58;;;;;;;32.30;28.80;;;;;;;12.48;100.00;99759.14;109431;1251;59513;-72
2023/09/07 03:47:28;;;;;;;28.80;25.90;;;;;;;12.48;100.00;99762.70;109579;1251;58966;-72
2023/09/07 03:49:58;;;;;;;29.10;25.90;;;;;;;12.46;100.00;99763.88;109606;1251;59253;-72
2023/09/07 03:52:26;;;;;;;28.90;25.50;;;;;;;12.43;100.00;99764.93;109608;1251;66200;-73
2023/09/07 03:54:56;;;;;;;30.00;27.00;;;;;;;12.39;100.00;99765.37;109638;1250;59010;-73
2023/09/07 03:57:25;;;;;;;26.80;24.00;;;;;;;12.34;100.00;99767.33;109414;1251;62856;-72
2023/09/07 03:59:51;;;;;;;27.60;24.70;;;;;;;12.28;100.00;99769.98;109601;1251;59057;-73
2023/09/07 04:02:18;;;;;;;29.00;25.30;;;;;;;12.25;100.00;99772.67;109679;1250;59114;-72
2023/09/07 04:04:57;;;;;;;30.40;27.30;;;;;;;12.26;100.00;99772.95;109617;1251;66024;-73
2023/09/07 04:07:24;;;;;;;30.90;27.50;;;;;;;12.30;100.00;99774.16;109606;1250;60304;-73
2023/09/07 04:09:51;;;;;;;32.10;28.70;;;;;;;12.35;100.00;99774.04;109604;1251;62850;-73
2023/09/07 04:12:18;;;;;;;32.00;28.50;;;;;;;12.39;100.00;99775.90;109644;1250;59064;-72
2023/09/07 04:14:44;;;;;;;31.90;28.60;;;;;;;12.42;100.00;99777.16;109612;1251;59325;-73
2023/09/07 04:17:11;;;;;;;31.90;28.00;;;;;;;12.45;100.00;99778.02;109569;1250;64823;-72
2023/09/07 04:19:37;;;;;;;30.50;27.30;;;;;;;12.47;100.00;99777.53;109633;1251;60319;-73
2023/09/07 04:22:04;;;;;;;35.30;27.30;;;;;;;12.50;100.00;99779.48;109583;1250;63938;-72
2023/09/07 04:24:30;;;;;;;29.00;25.90;;;;;;;12.54;100.00;99780.30;109570;1250;58943;-72
2023/09/07 04:27:01;;;;;;;29.40;26.00;;;;;;;12.65;100.00;99784.98;109408;1251;59074;-73
2023/09/07 04:29:28;;;;;;;30.50;24.00;;;;;;;12.94;100.00;99782.09;109598;1250;66101;-73
2023/09/07 04:31:54;;;;;;;27.30;24.50;;;;;;;13.23;100.00;99782.71;109684;1251;59238;-73
2023/09/07 04:34:22;;;;;;;25.10;22.30;;;;;;;13.52;100.00;99784.08;109416;1251;62567;-73
2023/09/07 04:36:48;;;;;;;28.20;21.90;;;;;;;13.82;100.00;99786.27;109599;1250;59047;-73
2023/09/07 04:39:15;;;;;;;24.40;21.80;;;;;;;14.09;100.00;99789.86;109662;1250;58976;-73
2023/09/07 04:41:42;;;;;;;22.40;20.10;;;;;;;14.23;100.00;99791.34;109716;1250;66031;-73
2023/09/07 04:44:08;;;;;;;22.90;20.60;;;;;;;14.51;100.00;99786.75;109691;1254;60270;-73
2023/09/07 04:46:35;;;;;;;25.50;20.60;;;;;;;14.70;100.00;99790.25;109304;1251;63761;-73
2023/09/07 04:49:01;;;;;;;22.80;20.60;;;;;;;14.60;100.00;99790.80;109610;1250;59003;-73
2023/09/07 04:51:28;;;;;;;24.60;21.60;;;;;;;14.88;100.00;99791.63;109354;1251;58992;-73
2023/09/07 04:53:54;;;;;;;24.40;22.00;;;;;;;15.25;100.00;99792.19;109668;1250;64533;-73
2023/09/07 04:56:21;;;;;;;23.00;20.50;;;;;;;15.51;100.00;99798.82;109658;1251;58931;-73
2023/09/07 04:58:48;;;;;;;23.50;20.90;;;;;;;15.79;100.00;99799.63;109628;1251;63812;-73
2023/09/07 05:01:14;;;;;;;22.60;20.30;;;;;;;15.96;100.00;99799.79;109276;1251;58968;-73
2023/09/07 05:03:41;;;;;;;20.70;18.70;;;;;;;16.16;100.00;99796.23;109661;1251;58974;-72
2023/09/07 05:06:07;;;;;;;20.80;18.40;;;;;;;16.40;100.00;99795.27;109670;1250;59276;-73
2023/09/07 05:08:34;;;;;;;21.20;19.10;;;;;;;16.69;100.00;99799.50;109649;1252;60049;-72
2023/09/07 05:11:03;;;;;;;20.10;18.00;;;;;;;16.96;100.00;99800.96;109653;1251;62820;-72
2023/09/07 05:13:30;;;;;;;20.70;17.50;;;;;;;17.22;100.00;99801.16;109631;1251;58989;-73
2023/09/07 05:16:00;;;;;;;19.20;17.30;;;;;;;17.44;100.00;99802.42;109642;1251;59052;-72
2023/09/07 05:18:26;;;;;;;18.90;16.90;;;;;;;17.59;100.00;99805.83;109658;1251;66118;-72
2023/09/07 05:20:53;;;;;;;18.40;16.40;;;;;;;17.67;100.00;99811.84;109361;1251;59033;-72
2023/09/07 05:23:21;;;;;;;19.90;17.40;;;;;;;17.77;100.00;99814.04;109638;1251;64049;-72
2023/09/07 05:25:53;;;;;;;20.00;16.60;;;;;;;17.84;100.00;99817.29;109639;1251;59457;-73
2023/09/07 05:28:21;;;;;;;19.50;17.50;;;;;;;17.98;100.00;99818.09;109666;1255;58973;-73
2023/09/07 05:30:48;;;;;;;20.80;16.40;;;;;;;18.17;100.00;99812.71;109697;1251;65938;-72
2023/09/07 05:33:17;;;;;;;19.40;17.30;;;;;;;18.36;100.00;99814.08;109683;1251;59460;-73
2023/09/07 05:35:45;;;;;;;18.90;16.90;;;;;;;18.43;100.00;99813.17;109651;1251;64028;-72
2023/09/07 05:38:12;;;;;;;18.70;16.70;;;;;;;18.57;100.00;99812.46;109666;1251;58958;-73
2023/09/07 05:40:41;;;;;;;18.20;16.30;;;;;;;18.73;100.00;99812.52;109419;1251;59081;-73
2023/09/07 05:43:08;;;;;;;19.20;17.00;;;;;;;18.80;100.00;99811.88;109706;1251;64496;-73
2023/09/07 05:45:38;;;;;;;17.60;15.60;;;;;;;18.90;100.00;99811.04;109716;1251;58933;-73
2023/09/07 05:48:05;;;;;;;17.70;15.90;;;;;;;18.98;100.00;99814.24;109640;1251;62841;-73
2023/09/07 05:50:35;;;;;;;16.80;15.00;;;;;;;19.06;100.00;99817.18;109432;1251;58937;-73
2023/09/07 05:53:02;;;;;;;17.60;15.80;;;;;;;19.16;100.00;99816.81;109628;1251;58978;-73
2023/09/07 05:55:29;;;;;;;17.10;15.50;;;;;;;19.23;100.00;99815.83;109640;1251;64798;-67
2023/09/07 05:57:56;;;;;;;17.50;15.70;;;;;;;19.29;100.00;99816.77;109676;1251;59506;-67
2023/09/07 06:00:23;;;;;;;18.20;16.30;;;;;;;19.37;100.00;99816.21;109475;1250;64026;-67
2023/09/07 06:02:50;;;;;;;18.40;16.30;;;;;;;19.42;100.00;99821.88;109624;1250;58955;-67
2023/09/07 06:05:17;;;;;;;17.30;15.50;;;;;;;19.46;100.00;99823.29;109701;1251;59034;-68
2023/09/07 06:07:44;;;;;;;19.10;17.10;;;;;;;19.49;100.00;99827.17;109663;1251;64544;-68
2023/09/07 06:10:11;;;;;;;18.80;16.80;;;;;;;19.55;100.00;99825.04;109681;1250;60596;-67
2023/09/07 06:12:37;;;;;;;18.90;16.90;;;;;;;19.61;100.00;99826.08;109622;1252;64082;-67
2023/09/07 06:15:04;;;;;;;22.50;19.10;;;;;;;19.68;100.00;99831.30;109305;1251;59034;-68
2023/09/07 06:17:31;;;;;;;19.70;17.80;;;;;;;19.69;100.00;99832.64;109694;1251;58930;-67
2023/09/07 06:19:57;;;;;;;21.60;18.50;;;;;;;19.79;100.00;99836.89;109642;1251;66065;-67
2023/09/07 06:22:24;;;;;;;20.20;17.40;;;;;;;19.89;100.00;99839.06;109681;1251;58965;-67
2023/09/07 06:24:51;;;;;;;20.30;18.40;;;;;;;19.79;100.00;99836.73;109625;1251;65601;-68
2023/09/07 06:27:17;;;;;;;22.00;19.60;;;;;;;19.74;100.00;99835.74;109588;1250;59150;-67
2023/09/07 06:29:44;;;;;;;19.50;17.60;;;;;;;19.69;100.00;99840.20;109438;1250;59071;-67
2023/09/07 06:32:10;;;;;;;22.30;19.60;;;;;;;19.49;100.00;99845.95;109658;1250;59601;-68
2023/09/07 06:34:37;;;;;;;19.80;17.80;;;;;;;19.19;100.00;99845.05;109624;1250;58951;-67
2023/09/07 06:37:05;;;;;;;20.60;18.60;;;;;;;18.97;100.00;99844.08;109639;1251;62870;-67
2023/09/07 06:39:31;;;;;;;21.90;19.60;;;;;;;18.74;100.00;99843.36;109531;1251;59078;-67
2023/09/07 06:41:58;;;;;;;19.70;17.30;;;;;;;18.60;100.00;99840.64;109665;1251;58953;-67
2023/09/07 06:44:24;;;;;;;19.50;17.40;;;;;;;18.52;100.00;99842.57;109284;1251;64775;-67
2023/09/07 06:46:51;;;;;;;19.20;16.90;;;;;;;18.45;100.00;99847.11;109633;1251;58932;-67
2023/09/07 06:49:17;;;;;;;19.30;17.00;;;;;;;18.44;100.00;99850.11;109612;1250;59070;-67
2023/09/07 06:51:44;;;;;;;19.50;17.60;;;;;;;18.40;100.00;99852.61;109348;1251;326112;-67
2023/09/07 06:54:12;;;;;;;19.60;16.20;;;;;;;18.35;100.00;99850.20;109629;1251;58984;-67
2023/09/07 06:56:38;;;;;;;20.80;16.80;;;;;;;18.34;100.00;99850.44;109628;1250;66069;-67
2023/09/07 06:59:05;;;;;;;19.50;17.30;;;;;;;18.37;100.00;99852.12;109645;1251;60259;-67
2023/09/07 07:01:32;;;;;;;19.30;17.10;;;;;;;18.45;100.00;99847.56;109665;1251;65023;-67
2023/09/07 07:03:58;;;;;;;19.90;17.50;;;;;;;18.52;100.00;99852.86;109587;1251;59046;-67
2023/09/07 07:06:25;;;;;;;17.40;15.50;;;;;;;18.59;100.00;99857.06;109588;1250;58979;-67
2023/09/07 07:08:52;;;;;;;16.20;14.60;;;;;;;18.66;100.00;99859.72;109629;1251;66026;-67
2023/09/07 07:11:19;;;;;;;14.70;13.30;;;;;;;18.65;100.00;99865.38;109636;1250;59787;-67
2023/09/07 07:13:46;;;;;;;14.10;12.60;;;;;;;18.64;100.00;99866.73;109628;1251;64171;-67
2023/09/07 07:16:13;;;;;;;15.70;14.10;;;;;;;18.72;100.00;99862.83;109644;1251;59254;-67
2023/09/07 07:18:40;;;;;;;15.90;14.20;;;;;;;18.82;100.00;99860.17;109686;1251;58899;-67
2023/09/07 07:21:06;;;;;;;15.40;13.80;;;;;;;18.94;100.00;99860.92;109670;1251;66119;-67
2023/09/07 07:23:33;;;;;;;14.00;12.70;;;;;;;19.01;100.00;99861.58;109638;1251;59016;-67
2023/09/07 07:25:59;;;;;;;15.00;12.70;;;;;;;18.99;100.00;99859.73;109616;1251;63764;-67
2023/09/07 07:28:26;;;;;;;15.40;12.20;;;;;;;18.95;100.00;99861.35;109416;1251;59011;-67
2023/09/07 07:30:53;;;;;;;13.70;12.10;;;;;;;18.94;100.00;99861.09;109639;1251;59019;-67
2023/09/07 07:33:20;;;;;;;15.10;11.80;;;;;;;19.01;100.00;99858.20;109457;1251;65886;-67
2023/09/07 07:35:47;;;;;;;16.50;11.60;;;;;;;19.06;100.00;99859.15;109607;1254;59298;-66
2023/09/07 07:38:14;;;;;;;12.50;11.20;;;;;;;19.13;100.00;99859.58;109552;1251;64021;-68
2023/09/07 07:40:41;;;;;;;11.50;10.30;;;;;;;19.24;100.00;99861.33;109611;1251;58949;-68
2023/09/07 07:43:09;;;;;;;15.80;12.00;;;;;;;19.30;100.00;99856.83;109325;1250;59080;-68
2023/09/07 07:45:38;;;;;;;12.90;11.60;;;;;;;19.38;100.00;99855.62;109650;1250;65708;-68
2023/09/07 07:48:08;;;;;;;12.90;10.90;;;;;;;19.49;100.00;99855.79;109649;1251;59939;-68
2023/09/07 07:50:41;;;;;;;12.60;11.20;;;;;;;19.66;100.00;99854.31;109580;1251;62841;-68
2023/09/07 07:53:07;;;;;;;12.50;10.90;;;;;;;19.80;100.00;99858.27;109591;1251;59004;-67
2023/09/07 07:55:38;;;;;;;13.90;10.70;;;;;;;19.91;100.00;99856.34;109636;1251;59067;-68
2023/09/07 07:58:07;;;;;;;12.50;10.60;;;;;;;20.00;100.00;99856.10;109641;1251;64821;-68
2023/09/07 08:00:35;;;;;;;10.10;9.10;;;;;;;20.10;100.00;99854.55;109628;1251;60189;-68
2023/09/07 08:03:06;;;;;;;11.10;9.90;;;;;;;20.24;100.00;99855.70;109691;1251;62984;-67
2023/09/07 08:05:34;;;;;;;11.70;9.30;;;;;;;20.34;100.00;99858.73;109620;1254;58970;-68
2023/09/07 08:08:01;;;;;;;14.60;9.90;;;;;;;20.35;100.00;99858.39;109601;1251;58857;-68
2023/09/07 08:10:28;;;;;;;11.30;9.30;;;;;;;20.35;100.00;99858.79;109614;1251;64490;-68
2023/09/07 08:12:56;;;;;;;10.10;9.10;;;;;;;20.40;100.00;99859.36;109671;1251;59957;-68
2023/09/07 08:15:24;;;;;;;10.60;9.50;;;;;;;20.50;100.00;99864.60;109630;1251;63197;-68
2023/09/07 08:17:51;;;;;;;10.10;9.10;;;;;;;20.62;100.00;99867.52;109652;1251;59017;-67
2023/09/07 08:20:18;;;;;;;12.20;9.40;;;;;;;20.74;100.00;99871.41;109685;1251;59084;-68
2023/09/07 08:22:45;;;;;;;11.30;8.80;;;;;;;20.85;100.00;99870.73;109629;1250;66043;-68
2023/09/07 08:25:13;;;;;;;11.40;9.20;;;;;;;20.97;100.00;99870.77;109328;1250;59196;-68
2023/09/07 08:27:44;;;;;;;10.80;9.70;;;;;;;21.08;100.00;99866.11;109688;1254;63748;-68
2023/09/07 08:30:16;;;;;;;10.30;9.20;;;;;;;21.20;100.00;99867.05;109581;1251;58934;-68
2023/09/07 08:32:46;;;;;;;9.60;8.60;;;;;;;21.33;100.00;99867.86;109639;1251;58973;-68
2023/09/07 08:35:13;;;;;;;11.20;8.80;;;;;;;21.42;100.00;99870.23;109666;1251;66039;-68
2023/09/07 08:37:40;;;;;;;9.70;8.40;;;;;;;21.48;100.00;99870.23;109670;1251;60169;-68
2023/09/07 08:40:08;;;;;;;9.80;8.90;;;;;;;21.59;100.00;99866.77;109662;1251;62962;-68
2023/09/07 08:42:39;;;;;;;12.80;7.90;;;;;;;21.73;100.00;99864.48;109671;1251;59411;-68
2023/09/07 08:45:08;;;;;;;9.20;8.10;;;;;;;21.78;100.00;99868.98;109672;1251;59040;-68
2023/09/07 08:47:37;;;;;;;9.30;7.90;;;;;;;21.82;100.00;99868.98;109623;1250;66110;-68
2023/09/07 08:50:08;;;;;;;9.60;8.60;;;;;;;21.91;100.00;99869.66;109636;1251;59047;-68
2023/09/07 08:52:37;;;;;;;13.30;8.20;;;;;;;22.04;100.00;99874.61;109336;1250;64463;-68
2023/09/07 08:55:05;;;;;;;11.20;8.30;;;;;;;22.13;100.00;99872.59;109645;1251;58955;-68
2023/09/07 08:57:32;;;;;;;9.30;8.10;;;;;;;22.20;100.00;99868.27;109706;1251;58875;-68
2023/09/07 08:59:59;;;;;;;9.70;7.30;;;;;;;22.28;100.00;99866.95;109636;1250;65881;-68
2023/09/07 09:02:26;;;;;;;9.40;7.60;;;;;;;22.39;100.00;99867.41;109619;1250;60276;-68
2023/09/07 09:04:53;;;;;;;9.00;8.10;;;;;;;22.51;100.00;99866.56;109708;1251;63894;-68
2023/09/07 09:07:20;;;;;;;9.30;7.50;;;;;;;22.61;100.00;99867.38;109631;1250;59036;-68
2023/09/07 09:09:47;;;;;;;8.50;7.30;;;;;;;22.73;100.00;99866.95;109673;1250;58884;-66
2023/09/07 09:12:14;;;;;;;8.80;7.90;;;;;;;22.84;100.00;99867.84;109407;1256;66121;-66
2023/09/07 09:14:44;;;;;;;10.10;8.60;;;;;;;22.88;100.00;99868.91;109664;1250;58953;-67
2023/09/07 09:17:13;;;;;;;10.30;7.30;;;;;;;22.96;100.00;99869.08;109624;1251;62822;-67
2023/09/07 09:19:41;;;;;;;8.90;7.00;;;;;;;23.06;100.00;99862.67;109143;1251;59066;-67
2023/09/07 09:22:09;;;;;;;9.60;7.60;;;;;;;23.17;100.00;99865.61;109662;1250;59057;-66
2023/09/07 09:24:36;;;;;;;9.00;7.10;;;;;;;23.23;100.00;99869.74;109628;1250;64483;-67
2023/09/07 09:27:07;;;;;;;7.80;7.10;;;;;;;23.20;100.00;99868.61;109687;1251;59925;-66
2023/09/07 09:29:34;;;;;;;9.00;7.20;;;;;;;23.19;100.00;99868.54;109640;1251;64138;-66
2023/09/07 09:32:04;;;;;;;7.80;7.10;;;;;;;23.20;100.00;99868.01;109667;1251;58946;-67
2023/09/07 09:34:35;;;;;;;8.00;7.20;;;;;;;23.23;100.00;99864.80;109645;1251;59012;-66
2023/09/07 09:37:03;;;;;;;8.80;7.00;;;;;;;23.32;100.00;99862.93;109710;1251;66086;-67
2023/09/07 09:39:30;;;;;;;8.90;7.40;;;;;;;23.45;100.00;99859.95;109707;1251;59873;-67
2023/09/07 09:41:57;;;;;;;8.50;7.30;;;;;;;23.56;100.00;99853.93;109603;1251;63719;-67
2023/09/07 09:44:25;;;;;;;8.20;6.10;;;;;;;23.58;100.00;99856.95;109602;1250;58931;-67
2023/09/07 09:46:56;;;;;;;8.70;6.50;;;;;;;23.59;100.00;99848.84;109310;1250;59222;-67
2023/09/07 09:49:23;;;;;;;6.90;6.20;;;;;;;23.66;100.00;99850.21;109611;1250;64513;-67
2023/09/07 09:51:52;;;;;;;7.40;6.50;;;;;;;23.76;100.00;99845.98;109668;1251;59821;-67
2023/09/07 09:54:21;;;;;;;7.60;6.30;;;;;;;23.88;100.00;99845.36;109688;1251;62921;-67
2023/09/07 09:56:48;;;;;;;8.50;7.10;;;;;;;24.01;100.00;99844.90;109584;1251;58990;-67
2023/09/07 09:59:15;;;;;;;8.40;6.80;;;;;;;24.11;100.00;99846.66;109679;1251;59669;-67
2023/09/07 10:01:46;;;;;;;7.80;6.20;;;;;;;24.15;100.00;99852.41;109642;1251;65891;-67
2023/09/07 10:04:15;;;;;;;6.90;5.80;;;;;;;24.09;100.00;99849.75;109634;1250;60122;-67
2023/09/07 10:06:54;;;;;;;8.80;6.60;;;;;;;24.11;100.00;99848.08;109620;1250;62498;-67
2023/09/07 10:09:21;;;;;;;;;;;;;;;24.22;100.00;99845.40;109680;1251;58938;-67
2023/09/07 10:11:56;;;;;;;8.50;6.10;;;;;;;24.33;100.00;99842.36;109685;1250;58907;-67
2023/09/07 10:14:22;;;;;;;6.50;5.80;;;;;;;24.37;100.00;99841.81;109678;1251;65979;-68
2023/09/07 10:16:55;;;;;;;6.70;6.00;;;;;;;24.32;100.00;99845.73;109641;1250;59016;-67
2023/09/07 10:19:23;;;;;;;7.90;6.30;;;;;;;24.28;100.00;99841.84;109340;1251;64069;-67
2023/09/07 10:21:52;;;;;;;7.70;6.80;;;;;;;24.37;100.00;99839.56;109600;1251;59132;-67
2023/09/07 10:24:26;;;;;;;6.80;5.80;;;;;;;24.49;100.00;99840.58;109586;1251;59866;-68
2023/09/07 10:26:57;;;;;;;7.00;6.20;;;;;;;24.57;100.00;99841.76;109596;1251;73692;-68
2023/09/07 10:29:25;;;;;;;9.10;6.30;;;;;;;24.48;100.00;99847.29;109639;1250;60147;-67
2023/09/07 10:31:52;;;;;;;6.90;6.20;;;;;;;24.40;100.00;99843.45;109339;1250;64046;-67
2023/09/07 10:34:18;;;;;;;7.10;5.70;;;;;;;24.41;100.00;99836.46;109612;1250;59427;-67
2023/09/07 10:36:46;;;;;;;7.40;6.30;;;;;;;24.46;100.00;99839.02;109675;1250;59005;-68
2023/09/07 10:39:12;;;;;;;6.60;5.50;;;;;;;24.48;100.00;99834.79;109642;1250;64818;-67
2023/09/07 10:41:43;;;;;;;6.50;5.90;;;;;;;24.53;100.00;99835.30;109605;1251;60177;-67
2023/09/07 10:44:13;;;;;;;7.60;5.60;;;;;;;24.50;100.00;99834.48;109606;1251;64073;-67
2023/09/07 10:46:40;;;;;;;9.30;5.80;;;;;;;24.48;100.00;99833.36;109411;1250;59078;-67
2023/09/07 10:49:11;;;;;;;6.70;6.10;;;;;;;24.47;100.00;99831.75;109683;1250;60021;-68
2023/09/07 10:51:45;;;;;;;7.30;6.00;;;;;;;24.58;100.00;99832.77;109650;1251;66055;-68
2023/09/07 10:54:21;;;;;;;6.50;5.90;;;;;;;24.64;100.00;99834.44;109637;1250;60197;-68
2023/09/07 10:56:49;;;;;;;6.80;6.00;;;;;;;24.65;100.00;99824.71;109656;1250;64063;-69
2023/09/07 10:59:17;;;;;;;6.50;5.70;;;;;;;24.72;100.00;99821.36;109635;1250;59319;-66
2023/09/07 11:01:45;;;;;;;6.30;5.70;;;;;;;24.74;100.00;99824.22;109702;1250;59003;-66
2023/09/07 11:04:11;;;;;;;6.90;6.20;;;;;;;24.69;100.00;99826.63;109704;1250;64735;-67
2023/09/07 11:06:40;;;;;;;5.90;5.40;;;;;;;24.66;100.00;99824.55;109643;1251;59844;-66
2023/09/07 11:09:10;;;;;;;7.00;5.50;;;;;;;24.67;100.00;99817.77;109690;1250;64160;-66